Time;durP1;ratioP1;P1;durP2;ratioP2;P2;SDS_P1;SDS_P2;PMS_P1;PMS_P2;Temp;Humidity;BMP_temperature;BMP_pressure;BME280_temperature;BME280_humidity;BME280_pressure;Samples;Min_cycle;Max_cycle;Signal;HPM_P1;HPM_P2
2021/01/24 00:00:49;;;;;;;9.00;6.32;;;;;;;-0.67;99.78;97905.75;5010931;28;20061;-78
2021/01/24 00:03:17;;;;;;;7.28;5.95;;;;;;;-0.50;99.58;97941.56;5005839;28;20100;-77
2021/01/24 00:05:44;;;;;;;7.30;6.05;;;;;;;-0.52;99.59;97932.09;4998267;28;20046;-79
2021/01/24 00:08:14;;;;;;;7.05;5.47;;;;;;;-0.62;100.00;97929.94;4994421;28;20051;-81
2021/01/24 00:10:41;;;;;;;5.70;4.70;;;;;;;-0.57;99.90;97943.66;5011393;28;20451;-78
2021/01/24 00:13:07;;;;;;;9.52;5.47;;;;;;;-0.56;100.00;97953.22;5000965;28;20165;-79
2021/01/24 00:15:34;;;;;;;6.88;5.25;;;;;;;-0.59;100.00;97952.53;4981499;28;20051;-82
2021/01/24 00:18:00;;;;;;;5.18;4.07;;;;;;;-0.57;100.00;97964.63;4998550;28;20425;-79
2021/01/24 00:20:26;;;;;;;5.78;4.53;;;;;;;-0.61;100.00;97963.09;4998602;28;20046;-79
2021/01/24 00:22:52;;;;;;;8.73;4.30;;;;;;;-0.66;100.00;97951.16;4997743;28;20105;-81
2021/01/24 00:25:19;;;;;;;5.28;4.07;;;;;;;-0.61;100.00;97970.13;4998329;28;20108;-79
2021/01/24 00:27:45;;;;;;;6.95;3.58;;;;;;;-0.58;100.00;97972.56;4998628;28;20058;-80
2021/01/24 00:30:13;;;;;;;2.90;2.60;;;;;;;-0.60;100.00;97977.88;4998094;28;20053;-80
2021/01/24 00:32:40;;;;;;;4.22;3.17;;;;;;;-0.74;100.00;97970.72;4998177;28;20050;-78
2021/01/24 00:35:08;;;;;;;5.70;1.80;;;;;;;-0.63;100.00;97979.81;4997122;28;20069;-81
2021/01/24 00:37:35;;;;;;;1.52;1.30;;;;;;;-0.71;100.00;97981.03;4998422;28;20058;-78
2021/01/24 00:40:07;;;;;;;1.98;0.80;;;;;;;-0.69;100.00;97984.41;5017122;28;20054;-77
2021/01/24 00:42:34;;;;;;;0.90;0.80;;;;;;;-0.67;100.00;97997.44;5017104;28;20064;-82
2021/01/24 00:45:00;;;;;;;1.05;0.93;;;;;;;-0.76;100.00;97982.19;5016520;28;20061;-79
2021/01/24 00:47:26;;;;;;;0.98;0.85;;;;;;;-0.67;100.00;98000.06;5016282;28;20053;-79
2021/01/24 00:49:53;;;;;;;2.08;1.00;;;;;;;-0.73;100.00;98003.84;5016193;28;20656;-80
2021/01/24 00:52:19;;;;;;;4.95;0.98;;;;;;;-0.69;100.00;98013.22;5016192;28;20057;-80
2021/01/24 00:54:45;;;;;;;1.17;1.00;;;;;;;-0.74;100.00;98015.25;5017077;28;20448;-80
2021/01/24 00:57:11;;;;;;;2.50;0.63;;;;;;;-0.76;100.00;98024.94;5017460;28;20062;-82
2021/01/24 00:59:38;;;;;;;4.68;1.10;;;;;;;-0.76;100.00;98029.34;5016067;28;20081;-84
2021/01/24 01:02:04;;;;;;;7.18;1.20;;;;;;;-0.82;100.00;98023.47;5017125;28;20107;-82
2021/01/24 01:04:30;;;;;;;7.35;1.00;;;;;;;-0.73;100.00;98042.28;5000099;28;20112;-82
2021/01/24 01:06:58;;;;;;;2.42;1.00;;;;;;;-0.72;100.00;98039.59;5016397;28;20054;-81
2021/01/24 01:09:24;;;;;;;3.83;1.15;;;;;;;-0.71;100.00;98043.91;5015705;28;20060;-81
2021/01/24 01:11:51;;;;;;;3.30;1.00;;;;;;;-0.84;100.00;98030.56;5016029;28;20050;-83
2021/01/24 01:14:18;;;;;;;3.22;1.70;;;;;;;-0.71;100.00;98050.94;5016237;28;20054;-83
2021/01/24 01:16:44;;;;;;;7.03;1.50;;;;;;;-0.68;100.00;98056.00;5016955;28;20436;-83
2021/01/24 01:19:11;;;;;;;4.55;1.60;;;;;;;-0.66;100.00;98063.81;5017028;28;20092;-81
2021/01/24 01:21:40;;;;;;;3.78;1.50;;;;;;;-0.79;100.00;98053.06;5016918;28;20061;-81
2021/01/24 01:24:07;;;;;;;2.38;1.92;;;;;;;-0.66;100.00;98076.91;5016560;28;20077;-77
2021/01/24 01:26:33;;;;;;;3.33;2.38;;;;;;;-0.66;100.00;98082.97;5020354;28;20058;-77
2021/01/24 01:28:59;;;;;;;7.80;2.85;;;;;;;-0.76;100.00;98066.03;5017533;28;20396;-81
2021/01/24 01:31:26;;;;;;;5.57;3.28;;;;;;;-0.66;100.00;98088.22;5018512;28;20057;-77
2021/01/24 01:33:52;;;;;;;7.68;3.67;;;;;;;-0.71;100.00;98085.81;5016800;28;20053;-79
2021/01/24 01:36:18;;;;;;;6.43;4.57;;;;;;;-0.67;100.00;98093.56;5016432;28;20389;-78
2021/01/24 01:38:45;;;;;;;7.18;4.82;;;;;;;-0.64;100.00;98096.00;5007562;28;20054;-78
2021/01/24 01:41:11;;;;;;;8.73;5.35;;;;;;;-0.66;100.00;98096.06;4996304;28;20062;-77
2021/01/24 01:43:37;;;;;;;6.75;5.70;;;;;;;-0.65;100.00;98103.00;4995651;28;20101;-77
2021/01/24 01:46:03;;;;;;;9.57;6.78;;;;;;;-0.62;100.00;98107.25;4996600;28;20050;-76
2021/01/24 01:48:32;;;;;;;8.98;6.13;;;;;;;-0.69;100.00;98097.06;4996572;28;20084;-77
2021/01/24 01:50:58;;;;;;;11.00;6.40;;;;;;;-0.59;100.00;98118.44;4996263;28;20065;-76
2021/01/24 01:53:25;;;;;;;8.57;6.40;;;;;;;-0.66;100.00;98105.72;4996494;28;20057;-77
2021/01/24 01:55:51;;;;;;;9.23;7.35;;;;;;;-0.70;100.00;98099.78;5011620;28;20054;-76
2021/01/24 01:58:18;;;;;;;12.18;7.35;;;;;;;-0.67;100.00;98104.03;5011944;28;20054;-77
2021/01/24 02:00:47;;;;;;;10.23;7.13;;;;;;;-0.71;100.00;98101.53;5027848;28;20046;-79
2021/01/24 02:03:45;;;;;;;14.45;7.80;;;;;;;-0.63;100.00;98110.81;4996474;28;20050;-80
2021/01/24 02:06:16;;;;;;;12.73;7.70;;;;;;;-0.62;100.00;98113.34;4996630;28;20050;-78
2021/01/24 02:09:01;;;;;;;13.73;9.95;;;;;;;-0.61;100.00;98117.66;4996346;28;20050;-77
2021/01/24 02:11:54;;;;;;;15.50;10.60;;;;;;;-0.63;100.00;98113.44;4996198;28;20330;-80
2021/01/24 02:15:00;;;;;;;21.00;11.90;;;;;;;-0.56;100.00;98123.53;4995136;28;20184;-78
2021/01/24 02:17:29;;;;;;;19.58;11.70;;;;;;;-0.56;100.00;98122.69;4996017;28;20516;-78
2021/01/24 02:20:02;;;;;;;23.98;14.32;;;;;;;-0.54;100.00;98128.72;4995268;28;20054;-79
2021/01/24 02:22:30;;;;;;;27.85;15.60;;;;;;;-0.60;100.00;98121.97;4995503;28;20094;-77
2021/01/24 02:25:20;;;;;;;29.38;15.60;;;;;;;-0.52;100.00;98128.63;4995974;28;20137;-77
2021/01/24 02:28:23;;;;;;;33.50;16.80;;;;;;;-0.43;100.00;98136.88;4995675;28;20498;-77
2021/01/24 02:30:52;;;;;;;32.10;17.70;;;;;;;-0.37;100.00;98127.91;4995585;28;20053;-77
2021/01/24 02:33:23;;;;;;;39.50;18.33;;;;;;;-0.43;100.00;98134.28;4996005;28;20046;-77
2021/01/24 02:35:58;;;;;;;38.60;20.00;;;;;;;-0.34;100.00;98146.09;4995961;28;20096;-77
2021/01/24 02:38:26;;;;;;;47.58;22.40;;;;;;;-0.48;100.00;98130.19;5001714;28;20095;-78
2021/01/24 02:40:53;;;;;;;40.75;21.02;;;;;;;-0.50;100.00;98148.59;5015038;28;20050;-76
2021/01/24 02:43:21;;;;;;;49.17;23.23;;;;;;;-0.46;100.00;98154.53;5014921;28;20065;-77
2021/01/24 02:45:51;;;;;;;56.55;25.33;;;;;;;-0.40;100.00;98153.41;5015120;28;20057;-77
2021/01/24 02:48:18;;;;;;;61.58;28.27;;;;;;;-0.45;100.00;98162.34;5015348;28;20058;-77
2021/01/24 02:50:46;;;;;;;64.97;29.05;;;;;;;-0.37;100.00;98159.34;5015511;28;20053;-77
2021/01/24 02:53:13;;;;;;;60.55;28.88;;;;;;;-0.38;100.00;98162.03;5014905;28;20065;-77
2021/01/24 02:55:40;;;;;;;64.03;27.88;;;;;;;-0.40;100.00;98175.22;5015365;28;20054;-77
2021/01/24 02:58:07;;;;;;;55.95;25.75;;;;;;;-0.48;100.00;98167.72;5013966;28;20427;-77
2021/01/24 03:00:33;;;;;;;55.50;27.40;;;;;;;-0.45;100.00;98177.19;5015282;28;20729;-77
2021/01/24 03:02:59;;;;;;;53.70;25.42;;;;;;;-0.44;100.00;98171.88;5014167;28;20053;-77
2021/01/24 03:05:26;;;;;;;53.47;26.45;;;;;;;-0.47;100.00;98166.81;5015379;28;20055;-77
2021/01/24 03:07:53;;;;;;;54.22;26.65;;;;;;;-0.33;100.00;98186.25;5015004;28;20053;-77
2021/01/24 03:10:20;;;;;;;45.15;25.48;;;;;;;-0.28;100.00;98195.59;5015027;28;20085;-77
2021/01/24 03:13:03;;;;;;;47.55;25.17;;;;;;;-0.30;100.00;98202.69;5014907;28;20443;-77
2021/01/24 03:15:31;;;;;;;47.08;25.73;;;;;;;-0.33;99.92;98207.25;5014953;28;20428;-77
2021/01/24 03:17:58;;;;;;;44.00;21.50;;;;;;;-0.63;99.77;98157.97;5014085;28;20060;-77
2021/01/24 03:20:27;;;;;;;42.78;24.25;;;;;;;-0.35;100.00;98209.94;5015083;28;20050;-77
2021/01/24 03:22:54;;;;;;;45.78;25.25;;;;;;;-0.47;100.00;98190.41;5014769;28;20054;-78
2021/01/24 03:25:22;;;;;;;43.17;23.52;;;;;;;-0.40;100.00;98211.91;5018709;28;20054;-77
2021/01/24 03:27:49;;;;;;;47.53;24.60;;;;;;;-0.34;100.00;98216.00;5017470;28;20443;-78
2021/01/24 03:30:16;;;;;;;41.42;24.05;;;;;;;-0.49;100.00;98204.50;5018886;28;20054;-77
2021/01/24 03:32:42;;;;;;;37.92;21.75;;;;;;;-0.38;100.00;98236.25;5018396;28;20050;-78
2021/01/24 03:35:08;;;;;;;36.28;21.38;;;;;;;-0.48;99.99;98206.19;5018372;28;20138;-78
2021/01/24 03:37:35;;;;;;;36.25;22.00;;;;;;;-0.34;100.00;98234.34;5018528;28;20066;-78
2021/01/24 03:40:01;;;;;;;38.88;22.17;;;;;;;-0.40;100.00;98242.53;4999887;28;20050;-77
2021/01/24 03:42:28;;;;;;;41.83;21.23;;;;;;;-0.43;100.00;98239.09;4997439;28;20062;-77
2021/01/24 03:44:55;;;;;;;43.65;24.52;;;;;;;-0.45;100.00;98243.59;4998685;28;20054;-77
2021/01/24 03:47:21;;;;;;;38.85;23.00;;;;;;;-0.47;100.00;98234.94;4997526;28;20054;-77
2021/01/24 03:49:48;;;;;;;37.22;21.77;;;;;;;-0.44;100.00;98245.28;4998471;28;20526;-77
2021/01/24 03:52:14;;;;;;;39.05;21.50;;;;;;;-0.43;100.00;98252.22;4998352;28;20337;-77
2021/01/24 03:54:40;;;;;;;38.22;21.35;;;;;;;-0.49;100.00;98252.50;4998705;28;20050;-77
2021/01/24 03:57:09;;;;;;;32.45;19.02;;;;;;;-0.60;100.00;98233.81;4998309;28;20058;-76
2021/01/24 03:59:35;;;;;;;32.90;18.40;;;;;;;-0.45;100.00;98253.19;4997437;28;20050;-78
2021/01/24 04:02:01;;;;;;;32.15;18.65;;;;;;;-0.57;100.00;98246.78;4998296;28;20101;-77
2021/01/24 04:04:28;;;;;;;25.73;16.33;;;;;;;-0.51;100.00;98249.09;4998258;28;20466;-76
2021/01/24 04:06:54;;;;;;;27.40;17.67;;;;;;;-0.49;100.00;98264.78;4997578;28;20109;-77
2021/01/24 04:09:20;;;;;;;27.85;16.88;;;;;;;-0.54;100.00;98265.00;4998239;28;20061;-76
2021/01/24 04:11:46;;;;;;;25.55;15.88;;;;;;;-0.62;100.00;98248.75;4998258;28;20061;-77
2021/01/24 04:14:12;;;;;;;26.98;16.08;;;;;;;-0.57;100.00;98260.72;4998182;28;20050;-77
2021/01/24 04:16:39;;;;;;;29.30;16.75;;;;;;;-0.56;100.00;98266.81;4998226;28;20050;-78
2021/01/24 04:19:05;;;;;;;26.00;15.88;;;;;;;-0.52;100.00;98270.13;4998343;28;20064;-77
2021/01/24 04:21:31;;;;;;;27.15;15.68;;;;;;;-0.53;100.00;98271.06;5029579;28;20104;-77
2021/01/24 04:23:57;;;;;;;26.60;15.57;;;;;;;-0.57;100.00;98257.25;4997068;28;20124;-76
2021/01/24 04:26:23;;;;;;;24.02;15.15;;;;;;;-0.51;100.00;98271.84;5029805;28;20065;-75
2021/01/24 04:28:49;;;;;;;27.88;15.25;;;;;;;-0.50;100.00;98278.81;4998014;28;20058;-75
2021/01/24 04:31:16;;;;;;;28.05;16.45;;;;;;;-0.47;100.00;98276.03;4997912;28;20061;-75
2021/01/24 04:33:42;;;;;;;30.55;17.10;;;;;;;-0.45;100.00;98282.91;4996509;28;20101;-75
2021/01/24 04:36:08;;;;;;;25.35;16.05;;;;;;;-0.47;100.00;98279.50;4998109;28;20050;-76
2021/01/24 04:38:35;;;;;;;28.50;18.10;;;;;;;-0.65;100.00;98252.34;5005233;28;20045;-75
2021/01/24 04:41:01;;;;;;;28.02;17.55;;;;;;;-0.43;100.00;98282.84;5016563;28;20108;-74
2021/01/24 04:43:28;;;;;;;29.55;18.60;;;;;;;-0.44;100.00;98292.47;5017078;28;20050;-75
2021/01/24 04:45:55;;;;;;;31.50;18.00;;;;;;;-0.55;100.00;98274.59;5017396;28;20069;-75
2021/01/24 04:48:23;;;;;;;28.30;17.98;;;;;;;-0.42;100.00;98297.63;5017147;28;20053;-75
2021/01/24 04:50:49;;;;;;;25.48;16.13;;;;;;;-0.48;100.00;98283.03;5016338;28;20439;-74
2021/01/24 04:53:16;;;;;;;25.98;17.33;;;;;;;-0.48;100.00;98288.25;5017027;28;20077;-75
2021/01/24 04:55:44;;;;;;;26.63;17.50;;;;;;;-0.33;100.00;98310.31;5000097;28;20053;-74
2021/01/24 04:58:10;;;;;;;25.52;16.60;;;;;;;-0.37;100.00;98316.63;5017055;28;20061;-75
2021/01/24 05:00:36;;;;;;;25.05;16.83;;;;;;;-0.37;100.00;98316.63;5017232;28;20064;-74
2021/01/24 05:03:03;;;;;;;30.90;17.02;;;;;;;-0.36;100.00;98322.72;5017081;28;20046;-75
2021/01/24 05:05:30;;;;;;;21.17;15.20;;;;;;;-0.37;100.00;98329.75;5015860;28;20431;-76
2021/01/24 05:07:58;;;;;;;19.77;14.70;;;;;;;-0.32;99.86;98329.53;5015784;28;20061;-76
2021/01/24 05:10:26;;;;;;;19.98;14.48;;;;;;;-0.30;99.98;98336.41;5016889;28;20402;-75
2021/01/24 05:12:53;;;;;;;20.13;13.68;;;;;;;-0.37;99.76;98326.25;5016751;28;20112;-75
2021/01/24 05:15:19;;;;;;;20.90;14.60;;;;;;;-0.29;99.66;98334.59;5016600;28;20054;-74
2021/01/24 05:17:57;;;;;;;20.48;13.73;;;;;;;-0.38;99.36;98335.03;5016965;28;20383;-75
2021/01/24 05:20:28;;;;;;;19.73;13.75;;;;;;;-0.43;100.00;98332.63;5016553;28;20053;-75
2021/01/24 05:22:56;;;;;;;20.50;14.02;;;;;;;-0.31;99.65;98345.19;5016532;28;20057;-76
2021/01/24 05:25:26;;;;;;;21.17;14.23;;;;;;;-0.38;100.00;98329.81;5015454;28;20084;-75
2021/01/24 05:27:52;;;;;;;24.70;14.17;;;;;;;-0.28;99.94;98350.28;5016546;28;20416;-75
2021/01/24 05:30:29;;;;;;;22.58;15.05;;;;;;;-0.26;99.85;98338.88;5016678;28;20054;-75
2021/01/24 05:32:58;;;;;;;23.83;14.00;;;;;;;-0.25;99.85;98351.03;5015315;28;20049;-74
2021/01/24 05:35:26;;;;;;;24.05;14.93;;;;;;;-0.26;99.72;98354.59;5016302;28;20053;-75
2021/01/24 05:37:52;;;;;;;20.85;14.88;;;;;;;-0.28;100.00;98352.91;5014199;28;20367;-74
2021/01/24 05:40:19;;;;;;;27.90;15.90;;;;;;;-0.22;99.80;98367.50;4996472;28;20322;-75
2021/01/24 05:42:46;;;;;;;23.67;14.90;;;;;;;-0.34;99.47;98349.69;4996481;28;20062;-75
2021/01/24 05:45:14;;;;;;;25.55;15.57;;;;;;;-0.24;99.41;98364.09;4996017;28;20122;-78
2021/01/24 05:47:44;;;;;;;21.30;15.13;;;;;;;-0.24;99.68;98369.34;4996589;28;20054;-74
2021/01/24 05:50:19;;;;;;;21.63;14.05;;;;;;;-0.27;99.39;98364.25;4996795;28;20089;-75
2021/01/24 05:52:47;;;;;;;19.55;14.00;;;;;;;-0.18;100.00;98384.78;4996625;28;20050;-75
2021/01/24 05:55:34;;;;;;;19.60;13.63;;;;;;;-0.17;99.46;98391.75;4996574;28;20138;-74
2021/01/24 05:58:26;;;;;;;20.08;14.45;;;;;;;-0.13;99.29;98392.44;4996113;28;20054;-77
2021/01/24 06:00:53;;;;;;;18.88;13.25;;;;;;;-0.13;99.52;98391.63;4995705;28;20046;-78
2021/01/24 06:03:20;;;;;;;18.35;13.70;;;;;;;-0.30;99.68;98369.63;4995976;28;20348;-73
2021/01/24 06:05:47;;;;;;;20.08;13.05;;;;;;;-0.10;99.22;98401.94;5026247;28;20109;-76
2021/01/24 06:08:15;;;;;;;18.65;11.98;;;;;;;-0.16;99.37;98398.69;4987763;28;20046;-76
2021/01/24 06:10:42;;;;;;;18.95;12.98;;;;;;;-0.14;98.90;98401.25;4995172;28;20058;-73
2021/01/24 06:13:22;;;;;;;18.30;13.30;;;;;;;-0.08;99.73;98403.59;4996329;28;20133;-77
2021/01/24 06:15:51;;;;;;;17.40;12.27;;;;;;;-0.07;99.40;98409.66;4996289;28;20050;-76
2021/01/24 06:18:22;;;;;;;21.13;14.18;;;;;;;-0.05;98.94;98410.47;4996305;28;20357;-77
2021/01/24 06:20:55;;;;;;;21.25;13.15;;;;;;;-0.11;99.31;98408.94;4995983;28;20069;-76
2021/01/24 06:23:37;;;;;;;19.65;13.80;;;;;;;-0.01;98.95;98418.13;4996002;28;20046;-73
2021/01/24 06:26:12;;;;;;;22.95;14.98;;;;;;;-0.03;98.82;98424.34;4995786;28;20050;-75
2021/01/24 06:28:43;;;;;;;19.27;13.10;;;;;;;-0.01;98.95;98427.75;4996182;28;20138;-74
2021/01/24 06:31:13;;;;;;;21.15;14.30;;;;;;;0.01;98.72;98436.41;5003730;28;20053;-74
2021/01/24 06:33:44;;;;;;;17.65;13.15;;;;;;;-0.04;98.72;98435.75;5002991;28;20129;-75
2021/01/24 06:36:11;;;;;;;16.13;12.73;;;;;;;-0.01;98.68;98433.00;4995836;28;20065;-75
2021/01/24 06:38:41;;;;;;;17.92;13.02;;;;;;;-0.08;98.94;98432.44;5003279;28;20103;-76
2021/01/24 06:41:13;;;;;;;15.63;11.82;;;;;;;-0.02;98.08;98453.13;5014508;28;20057;-76
2021/01/24 06:43:40;;;;;;;16.92;11.68;;;;;;;0.00;98.74;98450.47;5015200;28;20049;-75
2021/01/24 06:46:26;;;;;;;17.33;12.57;;;;;;;-0.08;98.39;98460.41;5015482;28;20104;-76
2021/01/24 06:48:52;;;;;;;14.45;9.73;;;;;;;-0.03;98.10;98471.56;5008684;28;20054;-76
2021/01/24 06:51:35;;;;;;;13.65;10.77;;;;;;;-0.06;98.39;98471.72;4995479;28;20077;-76
2021/01/24 06:54:04;;;;;;;15.20;11.07;;;;;;;-0.10;98.27;98476.25;4995692;28;20100;-74
2021/01/24 06:56:38;;;;;;;14.68;11.02;;;;;;;-0.06;98.19;98482.19;5001742;28;20049;-75
2021/01/24 06:59:04;;;;;;;16.05;11.70;;;;;;;-0.11;98.43;98479.75;5008268;28;20049;-76
2021/01/24 07:01:31;;;;;;;18.00;12.40;;;;;;;-0.10;98.34;98486.72;5007991;28;20057;-76
2021/01/24 07:04:25;;;;;;;18.67;11.82;;;;;;;-0.06;98.46;98492.69;5009380;28;20046;-75
2021/01/24 07:06:57;;;;;;;16.40;11.75;;;;;;;-0.08;98.22;98491.88;5005463;28;20061;-77
2021/01/24 07:09:24;;;;;;;18.52;12.70;;;;;;;-0.03;98.46;98500.41;5008074;28;20383;-76
2021/01/24 07:11:59;;;;;;;18.15;13.48;;;;;;;-0.07;97.92;98502.31;5005230;28;20050;-75
2021/01/24 07:14:32;;;;;;;22.20;13.85;;;;;;;0.03;98.63;98513.25;5008512;28;20083;-75
2021/01/24 07:17:04;;;;;;;20.27;14.38;;;;;;;-0.08;98.24;98505.88;5009016;28;20398;-75
2021/01/24 07:19:31;;;;;;;22.05;14.43;;;;;;;-0.05;97.86;98516.22;5009602;28;20454;-75
2021/01/24 07:21:58;;;;;;;22.02;14.30;;;;;;;0.00;98.14;98518.66;5008506;28;20104;-75
2021/01/24 07:24:26;;;;;;;22.30;15.23;;;;;;;-0.01;97.94;98516.94;5006391;28;20050;-77
2021/01/24 07:26:54;;;;;;;24.83;16.20;;;;;;;0.05;97.77;98523.69;5005429;28;20047;-76
2021/01/24 07:29:21;;;;;;;30.38;16.02;;;;;;;0.05;98.05;98542.06;5008840;28;20050;-77
2021/01/24 07:31:49;;;;;;;30.63;16.67;;;;;;;0.01;97.70;98538.72;5009547;28;20053;-76
2021/01/24 07:34:19;;;;;;;29.20;17.25;;;;;;;0.01;97.63;98543.09;5008043;28;20050;-78
2021/01/24 07:36:48;;;;;;;28.48;17.80;;;;;;;0.02;97.66;98552.66;5007461;28;20054;-75
2021/01/24 07:39:15;;;;;;;28.38;17.38;;;;;;;0.01;97.54;98551.84;5003931;28;20057;-78
2021/01/24 07:41:42;;;;;;;30.33;17.13;;;;;;;-0.09;97.72;98529.53;5007558;28;20062;-76
2021/01/24 07:44:08;;;;;;;23.05;15.05;;;;;;;0.04;97.22;98556.94;5004814;28;20053;-75
2021/01/24 07:46:34;;;;;;;26.15;17.30;;;;;;;-0.04;96.72;98540.69;5008421;28;20068;-75
2021/01/24 07:49:01;;;;;;;27.08;16.95;;;;;;;0.01;97.11;98557.06;5005254;28;20061;-76
2021/01/24 07:51:27;;;;;;;29.40;17.38;;;;;;;0.02;96.96;98563.16;5005477;28;20054;-78
2021/01/24 07:53:54;;;;;;;30.23;18.50;;;;;;;0.09;97.20;98570.72;5009443;28;20165;-78
2021/01/24 07:56:20;;;;;;;34.45;18.02;;;;;;;0.08;97.73;98576.00;5008000;28;20046;-76
2021/01/24 07:58:47;;;;;;;31.33;19.38;;;;;;;0.08;96.76;98571.63;5009610;28;20057;-76
2021/01/24 08:01:13;;;;;;;29.42;16.65;;;;;;;0.04;97.04;98572.66;5009699;28;20042;-75
2021/01/24 08:03:42;;;;;;;33.63;19.40;;;;;;;0.06;96.84;98581.31;5010878;28;20103;-76
2021/01/24 08:06:12;;;;;;;37.30;20.50;;;;;;;0.15;96.84;98589.72;5007606;28;20049;-74
2021/01/24 08:08:41;;;;;;;44.47;21.30;;;;;;;0.15;96.84;98595.81;5006908;28;20471;-76
2021/01/24 08:11:08;;;;;;;31.25;19.00;;;;;;;0.08;97.19;98600.50;5006681;28;20054;-76
2021/01/24 08:13:38;;;;;;;31.80;17.45;;;;;;;0.06;97.01;98599.69;5006608;28;20039;-75
2021/01/24 08:16:11;;;;;;;35.55;20.42;;;;;;;0.13;96.90;98603.75;5003574;28;20105;-74
2021/01/24 08:18:42;;;;;;;30.65;18.67;;;;;;;0.15;97.23;98602.84;5004461;28;20045;-73
2021/01/24 08:21:09;;;;;;;35.88;19.55;;;;;;;0.02;96.80;98586.75;5011130;28;20046;-74
2021/01/24 08:23:35;;;;;;;32.80;19.73;;;;;;;0.18;96.72;98615.81;4997906;28;20054;-70
2021/01/24 08:26:03;;;;;;;29.30;18.52;;;;;;;0.13;96.28;98609.00;4998963;28;20384;-72
2021/01/24 08:28:31;;;;;;;29.48;18.60;;;;;;;0.18;96.29;98616.69;5029904;28;20050;-73
2021/01/24 08:31:01;;;;;;;25.80;16.08;;;;;;;0.13;96.51;98602.91;4998952;28;20061;-75
2021/01/24 08:33:28;;;;;;;28.77;16.80;;;;;;;0.17;96.25;98614.13;5007062;28;20050;-73
2021/01/24 08:36:13;;;;;;;24.40;16.52;;;;;;;0.11;96.26;98612.63;5012782;28;20076;-72
2021/01/24 08:38:42;;;;;;;24.35;15.15;;;;;;;0.20;96.28;98624.47;5004714;28;20404;-71
2021/01/24 08:41:10;;;;;;;27.65;16.05;;;;;;;0.20;95.89;98630.59;5008202;28;20061;-77
2021/01/24 08:43:38;;;;;;;27.52;15.07;;;;;;;0.20;96.08;98624.47;5007569;28;20443;-73
2021/01/24 08:46:20;;;;;;;29.20;17.25;;;;;;;0.18;95.94;98627.19;5005252;28;20391;-73
2021/01/24 08:49:26;;;;;;;23.75;15.43;;;;;;;0.22;95.38;98628.72;5005340;28;20058;-76
2021/01/24 08:51:57;;;;;;;27.10;17.08;;;;;;;0.24;95.76;98636.56;5023677;28;20050;-76
2021/01/24 08:54:33;;;;;;;26.88;17.80;;;;;;;0.16;95.82;98630.78;5006919;28;20137;-76
2021/01/24 08:57:12;;;;;;;29.27;17.02;;;;;;;0.34;96.21;98644.88;5004249;28;20050;-77
2021/01/24 08:59:57;;;;;;;25.75;16.83;;;;;;;0.37;95.54;98647.34;4999309;28;20059;-77
2021/01/24 09:02:31;;;;;;;27.63;17.63;;;;;;;0.36;95.31;98651.78;5005220;28;20074;-75
2021/01/24 09:04:59;;;;;;;28.63;17.63;;;;;;;0.42;95.25;98655.06;5006140;28;20050;-76
2021/01/24 09:07:36;;;;;;;25.30;16.23;;;;;;;0.43;95.17;98654.97;5006069;28;20053;-77
2021/01/24 09:10:23;;;;;;;22.30;16.17;;;;;;;0.40;95.07;98653.31;5004601;28;20212;-77
2021/01/24 09:12:55;;;;;;;22.52;15.55;;;;;;;0.35;93.77;98659.69;5032072;28;20273;-76
2021/01/24 09:15:24;;;;;;;29.90;15.27;;;;;;;0.43;94.62;98681.22;5036023;28;20133;-72
2021/01/24 09:17:52;;;;;;;24.38;14.95;;;;;;;0.49;94.26;98675.69;5003943;28;20045;-73
2021/01/24 09:20:20;;;;;;;25.58;14.10;;;;;;;0.45;94.10;98676.78;5005643;28;20055;-77
2021/01/24 09:22:47;;;;;;;25.33;14.75;;;;;;;0.44;93.76;98692.59;5005297;28;20057;-76
2021/01/24 09:25:14;;;;;;;28.73;14.98;;;;;;;0.50;94.15;98689.69;5006103;28;20049;-77
2021/01/24 09:27:42;;;;;;;20.35;14.32;;;;;;;0.43;94.27;98683.00;5006725;28;20050;-75
2021/01/24 09:30:12;;;;;;;24.92;13.98;;;;;;;0.59;93.92;98693.69;5046704;28;20341;-75
2021/01/24 09:32:38;;;;;;;26.85;13.27;;;;;;;0.68;93.70;98695.91;5008428;28;20069;-75
2021/01/24 09:35:07;;;;;;;26.60;13.73;;;;;;;0.69;93.57;98694.97;5007628;28;20408;-76
2021/01/24 09:37:34;;;;;;;23.85;13.63;;;;;;;0.60;93.87;98693.59;5008706;28;20053;-79
2021/01/24 09:40:01;;;;;;;22.42;13.13;;;;;;;0.69;93.81;98699.41;5010571;28;20119;-75
2021/01/24 09:42:27;;;;;;;24.05;13.25;;;;;;;0.77;93.62;98700.75;5004816;28;20084;-76
2021/01/24 09:44:54;;;;;;;19.58;11.88;;;;;;;0.77;92.82;98705.16;5039066;28;20047;-74
2021/01/24 09:47:20;;;;;;;22.48;11.68;;;;;;;0.82;92.73;98708.44;5012514;28;20404;-74
2021/01/24 09:49:47;;;;;;;18.10;11.73;;;;;;;0.64;92.66;98703.06;5015696;28;20064;-76
2021/01/24 09:52:13;;;;;;;22.45;11.32;;;;;;;0.67;92.86;98702.91;5027107;28;20037;-75
2021/01/24 09:54:39;;;;;;;23.30;11.18;;;;;;;0.73;92.19;98721.97;5012854;28;20050;-76
2021/01/24 09:57:05;;;;;;;21.77;10.85;;;;;;;0.71;92.04;98716.75;5015723;28;20107;-75
2021/01/24 09:59:31;;;;;;;22.60;10.90;;;;;;;0.62;92.47;98725.91;5014369;28;20057;-75
2021/01/24 10:01:58;;;;;;;23.70;12.20;;;;;;;0.54;91.96;98707.88;5015340;28;20050;-75
2021/01/24 10:04:24;;;;;;;19.70;11.05;;;;;;;0.52;92.04;98728.09;5013883;28;20424;-74
2021/01/24 10:06:50;;;;;;;20.20;10.20;;;;;;;0.45;91.70;98728.41;5012275;28;20148;-76
2021/01/24 10:09:17;;;;;;;23.15;11.40;;;;;;;0.46;91.83;98724.84;5028029;28;20077;-74
2021/01/24 10:11:43;;;;;;;19.65;11.43;;;;;;;0.56;91.60;98726.19;5007284;28;20050;-74
2021/01/24 10:14:09;;;;;;;22.00;10.75;;;;;;;0.54;91.80;98720.13;5015055;28;20074;-75
2021/01/24 10:16:35;;;;;;;22.23;11.90;;;;;;;0.63;91.25;98730.25;5003810;28;20390;-75
2021/01/24 10:19:01;;;;;;;27.90;11.80;;;;;;;0.70;91.03;98730.00;5002301;28;20050;-76
2021/01/24 10:21:28;;;;;;;18.42;10.73;;;;;;;0.69;90.94;98725.66;5005856;28;20061;-75
2021/01/24 10:23:54;;;;;;;18.17;10.45;;;;;;;0.67;91.81;98734.44;5005669;28;20046;-77
2021/01/24 10:26:20;;;;;;;18.60;9.93;;;;;;;0.74;90.29;98744.66;5010275;28;20069;-77
2021/01/24 10:28:46;;;;;;;22.50;10.75;;;;;;;0.80;91.09;98736.53;5003955;28;20061;-74
2021/01/24 10:31:13;;;;;;;18.77;10.57;;;;;;;0.84;90.53;98751.25;5001363;28;20447;-77
2021/01/24 10:33:39;;;;;;;21.80;11.32;;;;;;;0.89;90.84;98748.41;5000376;28;20328;-75
2021/01/24 10:36:06;;;;;;;16.92;9.77;;;;;;;0.93;90.58;98753.47;5000974;28;20054;-76
2021/01/24 10:38:32;;;;;;;17.70;9.60;;;;;;;1.14;89.63;98752.59;5004574;28;20046;-74
2021/01/24 10:40:58;;;;;;;20.73;10.48;;;;;;;1.18;89.71;98749.75;5005114;28;20100;-75
2021/01/24 10:43:25;;;;;;;18.27;10.77;;;;;;;1.15;89.97;98734.09;5008446;28;20050;-75
2021/01/24 10:45:51;;;;;;;18.50;10.52;;;;;;;1.42;89.31;98748.69;5004644;28;20072;-76
2021/01/24 10:48:18;;;;;;;16.90;9.60;;;;;;;1.44;88.86;98742.44;5004644;28;20046;-78
2021/01/24 10:50:44;;;;;;;17.25;10.15;;;;;;;1.57;88.89;98755.03;5005709;28;20061;-79
2021/01/24 10:53:10;;;;;;;22.77;10.52;;;;;;;1.51;88.21;98750.06;5006235;28;20049;-75
2021/01/24 10:55:37;;;;;;;21.55;10.57;;;;;;;1.53;88.59;98753.44;5004207;28;20050;-76
2021/01/24 10:58:03;;;;;;;19.60;11.13;;;;;;;1.46;87.75;98737.09;5005608;28;20046;-78
2021/01/24 11:00:29;;;;;;;21.42;10.13;;;;;;;1.62;88.36;98755.63;5005459;28;20057;-77
2021/01/24 11:02:56;;;;;;;19.13;10.02;;;;;;;1.50;87.71;98754.44;5003684;28;20047;-74
2021/01/24 11:05:22;;;;;;;16.33;10.23;;;;;;;1.47;88.55;98752.81;5007948;28;20058;-74
2021/01/24 11:07:49;;;;;;;21.10;10.75;;;;;;;1.47;88.87;98749.34;5004823;28;20061;-75
2021/01/24 11:10:18;;;;;;;23.45;12.23;;;;;;;1.44;89.20;98752.09;5004800;28;20352;-74
2021/01/24 11:12:44;;;;;;;20.95;9.93;;;;;;;1.31;88.67;98743.94;5004442;28;20046;-74
2021/01/24 11:15:11;;;;;;;25.98;11.15;;;;;;;1.17;88.68;98737.53;5001741;28;20428;-75
2021/01/24 11:17:37;;;;;;;20.10;10.52;;;;;;;1.27;88.81;98752.88;5005812;28;20053;-76
2021/01/24 11:20:09;;;;;;;18.23;9.98;;;;;;;1.39;88.57;98744.44;5004562;28;20324;-76
2021/01/24 11:22:35;;;;;;;;;;;;;;;1.41;88.38;98760.13;5004424;28;20057;-75
2021/01/24 11:25:03;;;;;;;28.13;11.57;;;;;;;1.34;88.21;98749.03;5005547;28;19974;-76
2021/01/24 11:27:30;;;;;;;22.25;11.13;;;;;;;1.46;87.21;98760.75;5005303;28;20061;-74